sensor_id;sensor_type;location;lat;lon;timestamp;temperature;humidity
4308;DHT22;2167;53.448;9.984;2024-01-07T00:01:49;0.30;1.00
4308;DHT22;2167;53.448;9.984;2024-01-07T00:04:18;0.30;1.00
4308;DHT22;2167;53.448;9.984;2024-01-07T00:06:43;0.30;1.00
4308;DHT22;2167;53.448;9.984;2024-01-07T00:09:11;0.40;1.00
4308;DHT22;2167;53.448;9.984;2024-01-07T00:11:40;0.30;1.00
4308;DHT22;2167;53.448;9.984;2024-01-07T00:14:06;0.30;1.00
4308;DHT22;2167;53.448;9.984;2024-01-07T00:16:31;0.30;1.00
4308;DHT22;2167;53.448;9.984;2024-01-07T00:18:57;0.30;1.00
4308;DHT22;2167;53.448;9.984;2024-01-07T00:21:23;0.30;1.00
4308;DHT22;2167;53.448;9.984;2024-01-07T00:23:48;0.40;1.00
4308;DHT22;2167;53.448;9.984;2024-01-07T00:26:14;0.30;1.00
4308;DHT22;2167;53.448;9.984;2024-01-07T00:28:39;0.20;1.00
4308;DHT22;2167;53.448;9.984;2024-01-07T00:31:05;0.20;1.00
4308;DHT22;2167;53.448;9.984;2024-01-07T00:33:32;0.20;1.00
4308;DHT22;2167;53.448;9.984;2024-01-07T00:35:59;0.20;1.00
4308;DHT22;2167;53.448;9.984;2024-01-07T00:38:24;0.20;1.00
4308;DHT22;2167;53.448;9.984;2024-01-07T00:40:50;0.20;1.00
4308;DHT22;2167;53.448;9.984;2024-01-07T00:43:15;0.10;1.00
4308;DHT22;2167;53.448;9.984;2024-01-07T00:45:41;0.10;1.00
4308;DHT22;2167;53.448;9.984;2024-01-07T00:48:07;0.10;1.00
4308;DHT22;2167;53.448;9.984;2024-01-07T00:50:32;0.10;1.00
4308;DHT22;2167;53.448;9.984;2024-01-07T00:52:58;0.10;1.00
4308;DHT22;2167;53.448;9.984;2024-01-07T00:55:23;0.20;1.00
4308;DHT22;2167;53.448;9.984;2024-01-07T00:57:49;0.30;1.00
4308;DHT22;2167;53.448;9.984;2024-01-07T01:00:16;0.30;1.00
4308;DHT22;2167;53.448;9.984;2024-01-07T01:02:42;0.30;1.00
4308;DHT22;2167;53.448;9.984;2024-01-07T01:05:07;0.30;1.00
4308;DHT22;2167;53.448;9.984;2024-01-07T01:07:33;0.20;1.00
4308;DHT22;2167;53.448;9.984;2024-01-07T01:09:59;0.20;1.00
4308;DHT22;2167;53.448;9.984;2024-01-07T01:12:24;0.20;1.00
4308;DHT22;2167;53.448;9.984;2024-01-07T01:14:50;0.20;1.00
4308;DHT22;2167;53.448;9.984;2024-01-07T01:17:15;0.30;1.00
4308;DHT22;2167;53.448;9.984;2024-01-07T01:19:41;0.30;1.00
4308;DHT22;2167;53.448;9.984;2024-01-07T01:22:07;0.20;1.00
4308;DHT22;2167;53.448;9.984;2024-01-07T01:24:32;0.20;1.00
4308;DHT22;2167;53.448;9.984;2024-01-07T01:26:57;0.30;1.00
4308;DHT22;2167;53.448;9.984;2024-01-07T01:29:23;0.20;1.00
4308;DHT22;2167;53.448;9.984;2024-01-07T01:31:49;0.30;1.00
4308;DHT22;2167;53.448;9.984;2024-01-07T01:34:14;0.20;1.00
4308;DHT22;2167;53.448;9.984;2024-01-07T01:36:40;0.20;1.00
4308;DHT22;2167;53.448;9.984;2024-01-07T01:39:06;0.20;1.00
4308;DHT22;2167;53.448;9.984;2024-01-07T01:41:40;0.20;1.00
4308;DHT22;2167;53.448;9.984;2024-01-07T01:44:06;0.20;1.00
4308;DHT22;2167;53.448;9.984;2024-01-07T01:46:31;0.20;1.00
4308;DHT22;2167;53.448;9.984;2024-01-07T01:48:58;0.20;1.00
4308;DHT22;2167;53.448;9.984;2024-01-07T01:51:24;0.20;1.00
4308;DHT22;2167;53.448;9.984;2024-01-07T01:53:51;0.20;1.00
4308;DHT22;2167;53.448;9.984;2024-01-07T01:56:20;0.30;1.00
4308;DHT22;2167;53.448;9.984;2024-01-07T01:58:46;0.30;1.00
4308;DHT22;2167;53.448;9.984;2024-01-07T02:01:14;0.30;1.00
4308;DHT22;2167;53.448;9.984;2024-01-07T02:03:39;0.20;1.00
4308;DHT22;2167;53.448;9.984;2024-01-07T02:06:05;0.20;1.00
4308;DHT22;2167;53.448;9.984;2024-01-07T02:08:31;0.10;1.00
4308;DHT22;2167;53.448;9.984;2024-01-07T02:10:57;0.20;1.00
4308;DHT22;2167;53.448;9.984;2024-01-07T02:13:22;0.10;1.00
4308;DHT22;2167;53.448;9.984;2024-01-07T02:15:48;0.10;1.00
4308;DHT22;2167;53.448;9.984;2024-01-07T02:18:14;0.10;1.00
4308;DHT22;2167;53.448;9.984;2024-01-07T02:20:39;0.10;1.00
4308;DHT22;2167;53.448;9.984;2024-01-07T02:23:05;0.10;1.00
4308;DHT22;2167;53.448;9.984;2024-01-07T02:25:39;0.10;1.00
4308;DHT22;2167;53.448;9.984;2024-01-07T02:28:05;0.00;1.00
4308;DHT22;2167;53.448;9.984;2024-01-07T02:30:31;0.10;1.00
4308;DHT22;2167;53.448;9.984;2024-01-07T02:33:01;0.10;1.00
4308;DHT22;2167;53.448;9.984;2024-01-07T02:35:26;0.10;1.00
4308;DHT22;2167;53.448;9.984;2024-01-07T02:37:52;0.00;1.00
4308;DHT22;2167;53.448;9.984;2024-01-07T02:40:18;0.00;1.00
4308;DHT22;2167;53.448;9.984;2024-01-07T02:42:43;-0.10;1.00
4308;DHT22;2167;53.448;9.984;2024-01-07T02:45:09;-0.10;1.00
4308;DHT22;2167;53.448;9.984;2024-01-07T02:47:34;-0.10;1.00
4308;DHT22;2167;53.448;9.984;2024-01-07T02:50:04;0.00;1.00
4308;DHT22;2167;53.448;9.984;2024-01-07T02:52:29;-0.10;1.00
4308;DHT22;2167;53.448;9.984;2024-01-07T02:54:55;0.00;1.00
4308;DHT22;2167;53.448;9.984;2024-01-07T02:57:21;0.00;1.00
4308;DHT22;2167;53.448;9.984;2024-01-07T02:59:47;0.00;1.00
4308;DHT22;2167;53.448;9.984;2024-01-07T03:02:13;0.00;1.00
4308;DHT22;2167;53.448;9.984;2024-01-07T03:04:38;-0.10;1.00
4308;DHT22;2167;53.448;9.984;2024-01-07T03:07:04;-0.10;1.00
4308;DHT22;2167;53.448;9.984;2024-01-07T03:09:29;-0.10;1.00
4308;DHT22;2167;53.448;9.984;2024-01-07T03:11:55;-0.10;1.00
4308;DHT22;2167;53.448;9.984;2024-01-07T03:14:20;0.00;1.00
4308;DHT22;2167;53.448;9.984;2024-01-07T03:16:47;-0.10;1.00
4308;DHT22;2167;53.448;9.984;2024-01-07T03:19:12;0.00;1.00
4308;DHT22;2167;53.448;9.984;2024-01-07T03:21:39;0.00;1.00
4308;DHT22;2167;53.448;9.984;2024-01-07T03:24:04;0.00;1.00
4308;DHT22;2167;53.448;9.984;2024-01-07T03:26:30;0.10;1.00
4308;DHT22;2167;53.448;9.984;2024-01-07T03:28:59;0.00;1.00
4308;DHT22;2167;53.448;9.984;2024-01-07T03:31:26;0.00;1.00
4308;DHT22;2167;53.448;9.984;2024-01-07T03:33:51;0.10;1.00
4308;DHT22;2167;53.448;9.984;2024-01-07T03:36:17;0.10;1.00
4308;DHT22;2167;53.448;9.984;2024-01-07T03:38:43;0.20;1.00
4308;DHT22;2167;53.448;9.984;2024-01-07T03:41:09;0.20;1.00
4308;DHT22;2167;53.448;9.984;2024-01-07T03:43:34;0.20;1.00
4308;DHT22;2167;53.448;9.984;2024-01-07T03:46:00;0.20;1.00
4308;DHT22;2167;53.448;9.984;2024-01-07T03:48:26;0.10;1.00
4308;DHT22;2167;53.448;9.984;2024-01-07T03:50:52;0.20;1.00
4308;DHT22;2167;53.448;9.984;2024-01-07T03:53:18;0.20;1.00
4308;DHT22;2167;53.448;9.984;2024-01-07T03:55:43;0.20;1.00
4308;DHT22;2167;53.448;9.984;2024-01-07T03:58:09;0.20;1.00
4308;DHT22;2167;53.448;9.984;2024-01-07T04:00:34;0.20;1.00
4308;DHT22;2167;53.448;9.984;2024-01-07T04:03:01;0.20;1.00
4308;DHT22;2167;53.448;9.984;2024-01-07T04:05:26;0.20;1.00
4308;DHT22;2167;53.448;9.984;2024-01-07T04:07:52;0.30;1.00
4308;DHT22;2167;53.448;9.984;2024-01-07T04:10:18;0.30;1.00
4308;DHT22;2167;53.448;9.984;2024-01-07T04:12:44;0.40;1.00
4308;DHT22;2167;53.448;9.984;2024-01-07T04:15:13;0.40;1.00
4308;DHT22;2167;53.448;9.984;2024-01-07T04:17:38;0.40;1.00
4308;DHT22;2167;53.448;9.984;2024-01-07T04:20:05;0.40;1.00
4308;DHT22;2167;53.448;9.984;2024-01-07T04:22:31;0.40;1.00
4308;DHT22;2167;53.448;9.984;2024-01-07T04:24:57;0.40;1.00
4308;DHT22;2167;53.448;9.984;2024-01-07T04:27:22;0.30;1.00
4308;DHT22;2167;53.448;9.984;2024-01-07T04:29:50;0.30;1.00
4308;DHT22;2167;53.448;9.984;2024-01-07T04:32:15;0.30;1.00
4308;DHT22;2167;53.448;9.984;2024-01-07T04:34:41;0.30;1.00
4308;DHT22;2167;53.448;9.984;2024-01-07T04:37:06;0.30;1.00
4308;DHT22;2167;53.448;9.984;2024-01-07T04:39:32;0.30;1.00
4308;DHT22;2167;53.448;9.984;2024-01-07T04:41:58;0.40;1.00
4308;DHT22;2167;53.448;9.984;2024-01-07T04:44:23;0.30;1.00
4308;DHT22;2167;53.448;9.984;2024-01-07T04:46:49;0.40;1.00
4308;DHT22;2167;53.448;9.984;2024-01-07T04:49:15;0.40;1.00
4308;DHT22;2167;53.448;9.984;2024-01-07T04:51:40;0.30;1.00
4308;DHT22;2167;53.448;9.984;2024-01-07T04:54:06;0.30;1.00
4308;DHT22;2167;53.448;9.984;2024-01-07T04:56:32;0.30;1.00
4308;DHT22;2167;53.448;9.984;2024-01-07T04:58:57;0.40;1.00
4308;DHT22;2167;53.448;9.984;2024-01-07T05:01:23;0.50;1.00
4308;DHT22;2167;53.448;9.984;2024-01-07T05:03:49;0.60;1.00
4308;DHT22;2167;53.448;9.984;2024-01-07T05:06:15;0.50;1.00
4308;DHT22;2167;53.448;9.984;2024-01-07T05:08:41;0.60;1.00
4308;DHT22;2167;53.448;9.984;2024-01-07T05:11:07;0.50;1.00
4308;DHT22;2167;53.448;9.984;2024-01-07T05:13:33;0.50;1.00
4308;DHT22;2167;53.448;9.984;2024-01-07T05:15:59;0.50;1.00
4308;DHT22;2167;53.448;9.984;2024-01-07T05:18:24;0.50;1.00
4308;DHT22;2167;53.448;9.984;2024-01-07T05:20:51;0.50;1.00
4308;DHT22;2167;53.448;9.984;2024-01-07T05:23:17;0.50;1.00
4308;DHT22;2167;53.448;9.984;2024-01-07T05:25:43;0.50;1.00
4308;DHT22;2167;53.448;9.984;2024-01-07T05:28:10;0.50;1.00
4308;DHT22;2167;53.448;9.984;2024-01-07T05:30:36;0.50;1.00
4308;DHT22;2167;53.448;9.984;2024-01-07T05:33:02;0.50;1.00
4308;DHT22;2167;53.448;9.984;2024-01-07T05:35:27;0.50;1.00
4308;DHT22;2167;53.448;9.984;2024-01-07T05:37:53;0.50;1.00
4308;DHT22;2167;53.448;9.984;2024-01-07T05:40:18;0.50;1.00
4308;DHT22;2167;53.448;9.984;2024-01-07T05:42:44;0.50;1.00
4308;DHT22;2167;53.448;9.984;2024-01-07T05:45:10;0.50;1.00
4308;DHT22;2167;53.448;9.984;2024-01-07T05:47:35;0.50;1.00
4308;DHT22;2167;53.448;9.984;2024-01-07T05:50:01;0.50;1.00
4308;DHT22;2167;53.448;9.984;2024-01-07T05:52:27;0.50;1.00
4308;DHT22;2167;53.448;9.984;2024-01-07T05:54:53;0.60;1.00
4308;DHT22;2167;53.448;9.984;2024-01-07T05:57:19;0.50;1.00
4308;DHT22;2167;53.448;9.984;2024-01-07T05:59:45;0.60;1.00
4308;DHT22;2167;53.448;9.984;2024-01-07T06:02:11;0.60;1.00
4308;DHT22;2167;53.448;9.984;2024-01-07T06:04:38;0.60;1.00
4308;DHT22;2167;53.448;9.984;2024-01-07T06:07:03;0.60;1.00
4308;DHT22;2167;53.448;9.984;2024-01-07T06:09:29;0.60;1.00
4308;DHT22;2167;53.448;9.984;2024-01-07T06:11:54;0.70;1.00
4308;DHT22;2167;53.448;9.984;2024-01-07T06:14:22;0.60;1.00
4308;DHT22;2167;53.448;9.984;2024-01-07T06:16:48;0.70;1.00
4308;DHT22;2167;53.448;9.984;2024-01-07T06:19:13;0.60;1.00
4308;DHT22;2167;53.448;9.984;2024-01-07T06:21:40;0.70;1.00
4308;DHT22;2167;53.448;9.984;2024-01-07T06:24:07;0.80;1.00
4308;DHT22;2167;53.448;9.984;2024-01-07T06:26:33;0.80;1.00
4308;DHT22;2167;53.448;9.984;2024-01-07T06:28:59;0.80;1.00
4308;DHT22;2167;53.448;9.984;2024-01-07T06:31:25;0.80;1.00
4308;DHT22;2167;53.448;9.984;2024-01-07T06:33:51;0.80;1.00
4308;DHT22;2167;53.448;9.984;2024-01-07T06:36:17;0.80;1.00
4308;DHT22;2167;53.448;9.984;2024-01-07T06:38:42;0.80;1.00
4308;DHT22;2167;53.448;9.984;2024-01-07T06:41:10;0.80;1.00
4308;DHT22;2167;53.448;9.984;2024-01-07T06:43:35;0.80;1.00
4308;DHT22;2167;53.448;9.984;2024-01-07T06:46:01;0.90;1.00
4308;DHT22;2167;53.448;9.984;2024-01-07T06:48:26;0.90;1.00
4308;DHT22;2167;53.448;9.984;2024-01-07T06:50:52;0.90;1.00
4308;DHT22;2167;53.448;9.984;2024-01-07T06:53:17;0.90;1.00
4308;DHT22;2167;53.448;9.984;2024-01-07T06:55:43;0.90;1.00
4308;DHT22;2167;53.448;9.984;2024-01-07T06:58:09;0.90;1.00
4308;DHT22;2167;53.448;9.984;2024-01-07T07:00:34;0.80;1.00
4308;DHT22;2167;53.448;9.984;2024-01-07T07:03:00;0.80;1.00
4308;DHT22;2167;53.448;9.984;2024-01-07T07:05:25;0.80;1.00
4308;DHT22;2167;53.448;9.984;2024-01-07T07:07:51;0.80;1.00
4308;DHT22;2167;53.448;9.984;2024-01-07T07:10:16;0.90;1.00
4308;DHT22;2167;53.448;9.984;2024-01-07T07:12:42;0.90;1.00
4308;DHT22;2167;53.448;9.984;2024-01-07T07:15:08;0.90;1.00
4308;DHT22;2167;53.448;9.984;2024-01-07T07:17:36;0.90;1.00
4308;DHT22;2167;53.448;9.984;2024-01-07T07:20:02;1.00;1.00
4308;DHT22;2167;53.448;9.984;2024-01-07T07:22:27;1.00;1.00
4308;DHT22;2167;53.448;9.984;2024-01-07T07:24:53;1.00;1.00
4308;DHT22;2167;53.448;9.984;2024-01-07T07:27:19;0.90;1.00
4308;DHT22;2167;53.448;9.984;2024-01-07T07:29:45;0.90;1.00
4308;DHT22;2167;53.448;9.984;2024-01-07T07:32:10;1.00;1.00
4308;DHT22;2167;53.448;9.984;2024-01-07T07:34:36;1.10;1.00
4308;DHT22;2167;53.448;9.984;2024-01-07T07:37:02;1.10;1.00
4308;DHT22;2167;53.448;9.984;2024-01-07T07:39:28;1.10;1.00
4308;DHT22;2167;53.448;9.984;2024-01-07T07:41:53;1.10;1.00
4308;DHT22;2167;53.448;9.984;2024-01-07T07:44:19;1.10;1.00
4308;DHT22;2167;53.448;9.984;2024-01-07T07:46:44;1.00;1.00
4308;DHT22;2167;53.448;9.984;2024-01-07T07:49:10;1.00;1.00
4308;DHT22;2167;53.448;9.984;2024-01-07T07:51:36;1.00;1.00
4308;DHT22;2167;53.448;9.984;2024-01-07T07:54:02;1.00;1.00
4308;DHT22;2167;53.448;9.984;2024-01-07T07:56:28;1.00;1.00
4308;DHT22;2167;53.448;9.984;2024-01-07T07:58:54;1.00;1.00
4308;DHT22;2167;53.448;9.984;2024-01-07T08:01:20;1.10;1.00
4308;DHT22;2167;53.448;9.984;2024-01-07T08:03:45;1.00;1.00
4308;DHT22;2167;53.448;9.984;2024-01-07T08:06:11;1.00;1.00
4308;DHT22;2167;53.448;9.984;2024-01-07T08:08:36;1.00;1.00
4308;DHT22;2167;53.448;9.984;2024-01-07T08:11:02;1.00;1.00
4308;DHT22;2167;53.448;9.984;2024-01-07T08:13:28;1.00;1.00
4308;DHT22;2167;53.448;9.984;2024-01-07T08:15:54;1.00;1.00
4308;DHT22;2167;53.448;9.984;2024-01-07T08:18:20;0.90;1.00
4308;DHT22;2167;53.448;9.984;2024-01-07T08:20:45;1.00;1.00
4308;DHT22;2167;53.448;9.984;2024-01-07T08:23:11;1.00;1.00
4308;DHT22;2167;53.448;9.984;2024-01-07T08:25:37;1.00;1.00
4308;DHT22;2167;53.448;9.984;2024-01-07T08:28:02;1.00;1.00
4308;DHT22;2167;53.448;9.984;2024-01-07T08:30:28;1.00;1.00
4308;DHT22;2167;53.448;9.984;2024-01-07T08:32:53;0.90;1.00
4308;DHT22;2167;53.448;9.984;2024-01-07T08:35:19;0.90;1.00
4308;DHT22;2167;53.448;9.984;2024-01-07T08:37:44;0.90;1.00
4308;DHT22;2167;53.448;9.984;2024-01-07T08:40:11;0.80;1.00
4308;DHT22;2167;53.448;9.984;2024-01-07T08:42:38;0.80;1.00
4308;DHT22;2167;53.448;9.984;2024-01-07T08:45:04;0.80;1.00
4308;DHT22;2167;53.448;9.984;2024-01-07T08:47:30;0.70;1.00
4308;DHT22;2167;53.448;9.984;2024-01-07T08:49:57;0.70;1.00
4308;DHT22;2167;53.448;9.984;2024-01-07T08:52:24;0.70;1.00
4308;DHT22;2167;53.448;9.984;2024-01-07T08:54:49;0.70;1.00
4308;DHT22;2167;53.448;9.984;2024-01-07T08:57:15;0.70;1.00
4308;DHT22;2167;53.448;9.984;2024-01-07T08:59:41;0.70;1.00
4308;DHT22;2167;53.448;9.984;2024-01-07T09:02:07;0.70;1.00
4308;DHT22;2167;53.448;9.984;2024-01-07T09:04:32;0.70;1.00
4308;DHT22;2167;53.448;9.984;2024-01-07T09:06:59;0.70;1.00
4308;DHT22;2167;53.448;9.984;2024-01-07T09:09:24;0.70;1.00
4308;DHT22;2167;53.448;9.984;2024-01-07T09:11:50;0.60;1.00
4308;DHT22;2167;53.448;9.984;2024-01-07T09:14:17;0.60;1.00
4308;DHT22;2167;53.448;9.984;2024-01-07T09:16:43;0.60;1.00
4308;DHT22;2167;53.448;9.984;2024-01-07T09:19:10;0.60;1.00
4308;DHT22;2167;53.448;9.984;2024-01-07T09:21:37;0.60;1.00
4308;DHT22;2167;53.448;9.984;2024-01-07T09:24:06;0.50;1.00
4308;DHT22;2167;53.448;9.984;2024-01-07T09:26:31;0.60;1.00
4308;DHT22;2167;53.448;9.984;2024-01-07T09:28:57;0.60;1.00
4308;DHT22;2167;53.448;9.984;2024-01-07T09:31:22;0.60;1.00
4308;DHT22;2167;53.448;9.984;2024-01-07T09:33:48;0.70;1.00
4308;DHT22;2167;53.448;9.984;2024-01-07T09:36:14;0.70;1.00
4308;DHT22;2167;53.448;9.984;2024-01-07T09:38:40;0.60;1.00
4308;DHT22;2167;53.448;9.984;2024-01-07T09:41:05;0.60;1.00
4308;DHT22;2167;53.448;9.984;2024-01-07T09:43:31;0.60;1.00
4308;DHT22;2167;53.448;9.984;2024-01-07T09:45:57;0.60;1.00
4308;DHT22;2167;53.448;9.984;2024-01-07T09:48:24;0.60;1.00
4308;DHT22;2167;53.448;9.984;2024-01-07T09:50:51;0.50;1.00
4308;DHT22;2167;53.448;9.984;2024-01-07T09:53:20;0.60;1.00
4308;DHT22;2167;53.448;9.984;2024-01-07T09:56:19;0.60;1.00
4308;DHT22;2167;53.448;9.984;2024-01-07T09:58:46;0.60;1.00
4308;DHT22;2167;53.448;9.984;2024-01-07T10:01:16;0.60;1.00
4308;DHT22;2167;53.448;9.984;2024-01-07T10:03:42;0.60;1.00
4308;DHT22;2167;53.448;9.984;2024-01-07T10:06:08;0.60;1.00
4308;DHT22;2167;53.448;9.984;2024-01-07T10:08:35;0.60;1.00
4308;DHT22;2167;53.448;9.984;2024-01-07T10:11:01;0.60;1.00
4308;DHT22;2167;53.448;9.984;2024-01-07T10:13:27;0.60;1.00
4308;DHT22;2167;53.448;9.984;2024-01-07T10:15:53;0.50;1.00
4308;DHT22;2167;53.448;9.984;2024-01-07T10:18:20;0.50;1.00
4308;DHT22;2167;53.448;9.984;2024-01-07T10:20:45;0.50;1.00
4308;DHT22;2167;53.448;9.984;2024-01-07T10:23:11;0.50;1.00
4308;DHT22;2167;53.448;9.984;2024-01-07T10:25:37;0.40;1.00
4308;DHT22;2167;53.448;9.984;2024-01-07T10:28:03;0.50;1.00
4308;DHT22;2167;53.448;9.984;2024-01-07T10:30:31;0.50;1.00
4308;DHT22;2167;53.448;9.984;2024-01-07T10:32:58;0.60;1.00
4308;DHT22;2167;53.448;9.984;2024-01-07T10:35:33;0.60;1.00
4308;DHT22;2167;53.448;9.984;2024-01-07T10:38:00;0.60;1.00
4308;DHT22;2167;53.448;9.984;2024-01-07T10:40:27;0.60;1.00
4308;DHT22;2167;53.448;9.984;2024-01-07T10:42:54;0.70;1.00
4308;DHT22;2167;53.448;9.984;2024-01-07T10:45:21;0.70;1.00
4308;DHT22;2167;53.448;9.984;2024-01-07T10:47:51;0.70;1.00
4308;DHT22;2167;53.448;9.984;2024-01-07T10:50:20;0.80;1.00
4308;DHT22;2167;53.448;9.984;2024-01-07T10:52:49;0.70;1.00
4308;DHT22;2167;53.448;9.984;2024-01-07T10:55:18;0.70;1.00
4308;DHT22;2167;53.448;9.984;2024-01-07T10:57:45;0.70;1.00
4308;DHT22;2167;53.448;9.984;2024-01-07T11:00:18;0.70;1.00
4308;DHT22;2167;53.448;9.984;2024-01-07T11:02:53;0.80;1.00
4308;DHT22;2167;53.448;9.984;2024-01-07T11:05:25;0.80;1.00
4308;DHT22;2167;53.448;9.984;2024-01-07T11:07:57;0.90;1.00
4308;DHT22;2167;53.448;9.984;2024-01-07T11:10:35;0.90;1.00
4308;DHT22;2167;53.448;9.984;2024-01-07T11:13:03;0.90;1.00
4308;DHT22;2167;53.448;9.984;2024-01-07T11:18:22;1.00;1.00
4308;DHT22;2167;53.448;9.984;2024-01-07T11:20:51;1.00;1.00
4308;DHT22;2167;53.448;9.984;2024-01-07T11:23:30;1.00;1.00
4308;DHT22;2167;53.448;9.984;2024-01-07T11:26:02;1.00;1.00
4308;DHT22;2167;53.448;9.984;2024-01-07T11:29:01;1.00;1.00
4308;DHT22;2167;53.448;9.984;2024-01-07T11:31:43;1.10;1.00
4308;DHT22;2167;53.448;9.984;2024-01-07T11:34:09;1.00;1.00
4308;DHT22;2167;53.448;9.984;2024-01-07T11:36:38;1.00;1.00
4308;DHT22;2167;53.448;9.984;2024-01-07T11:39:04;1.00;1.00
4308;DHT22;2167;53.448;9.984;2024-01-07T11:41:34;1.00;1.00
4308;DHT22;2167;53.448;9.984;2024-01-07T11:44:01;1.10;1.00
4308;DHT22;2167;53.448;9.984;2024-01-07T11:46:28;1.10;1.00
4308;DHT22;2167;53.448;9.984;2024-01-07T11:48:56;1.10;1.00
4308;DHT22;2167;53.448;9.984;2024-01-07T11:51:29;1.00;1.00
4308;DHT22;2167;53.448;9.984;2024-01-07T11:53:59;1.00;1.00
4308;DHT22;2167;53.448;9.984;2024-01-07T11:56:25;1.10;1.00
4308;DHT22;2167;53.448;9.984;2024-01-07T11:58:51;1.10;1.00
4308;DHT22;2167;53.448;9.984;2024-01-07T12:01:18;1.10;1.00
4308;DHT22;2167;53.448;9.984;2024-01-07T12:03:44;1.00;1.00
4308;DHT22;2167;53.448;9.984;2024-01-07T12:06:10;1.00;1.00
4308;DHT22;2167;53.448;9.984;2024-01-07T12:08:42;0.90;1.00
4308;DHT22;2167;53.448;9.984;2024-01-07T12:11:09;0.80;1.00
4308;DHT22;2167;53.448;9.984;2024-01-07T12:13:37;0.80;1.00
4308;DHT22;2167;53.448;9.984;2024-01-07T12:16:04;0.70;1.00
4308;DHT22;2167;53.448;9.984;2024-01-07T12:18:29;0.70;1.00
4308;DHT22;2167;53.448;9.984;2024-01-07T12:20:59;0.70;1.00
4308;DHT22;2167;53.448;9.984;2024-01-07T12:23:25;0.70;1.00
4308;DHT22;2167;53.448;9.984;2024-01-07T12:25:54;0.70;1.00
4308;DHT22;2167;53.448;9.984;2024-01-07T12:28:21;0.70;1.00
4308;DHT22;2167;53.448;9.984;2024-01-07T12:30:50;0.60;1.00
4308;DHT22;2167;53.448;9.984;2024-01-07T12:33:17;0.60;1.00
4308;DHT22;2167;53.448;9.984;2024-01-07T12:35:45;0.60;1.00
4308;DHT22;2167;53.448;9.984;2024-01-07T12:38:11;0.50;1.00
4308;DHT22;2167;53.448;9.984;2024-01-07T12:40:37;0.60;1.00
4308;DHT22;2167;53.448;9.984;2024-01-07T12:43:02;0.50;1.00
4308;DHT22;2167;53.448;9.984;2024-01-07T12:45:28;0.50;1.00
4308;DHT22;2167;53.448;9.984;2024-01-07T12:47:53;0.60;1.00
4308;DHT22;2167;53.448;9.984;2024-01-07T12:50:24;0.60;1.00
4308;DHT22;2167;53.448;9.984;2024-01-07T12:52:53;0.70;1.00
4308;DHT22;2167;53.448;9.984;2024-01-07T12:55:18;0.60;1.00
4308;DHT22;2167;53.448;9.984;2024-01-07T12:57:44;0.70;1.00
4308;DHT22;2167;53.448;9.984;2024-01-07T13:00:10;0.70;1.00
4308;DHT22;2167;53.448;9.984;2024-01-07T13:02:36;0.70;1.00
4308;DHT22;2167;53.448;9.984;2024-01-07T13:05:02;0.60;1.00
4308;DHT22;2167;53.448;9.984;2024-01-07T13:07:28;0.60;1.00
4308;DHT22;2167;53.448;9.984;2024-01-07T13:09:54;0.60;1.00
4308;DHT22;2167;53.448;9.984;2024-01-07T13:12:19;0.60;1.00
4308;DHT22;2167;53.448;9.984;2024-01-07T13:14:46;0.60;1.00
4308;DHT22;2167;53.448;9.984;2024-01-07T13:17:13;0.50;1.00
4308;DHT22;2167;53.448;9.984;2024-01-07T13:19:38;0.50;1.00
4308;DHT22;2167;53.448;9.984;2024-01-07T13:22:04;0.50;1.00
4308;DHT22;2167;53.448;9.984;2024-01-07T13:24:30;0.50;1.00
4308;DHT22;2167;53.448;9.984;2024-01-07T13:26:55;0.40;1.00
4308;DHT22;2167;53.448;9.984;2024-01-07T13:29:21;0.50;1.00
4308;DHT22;2167;53.448;9.984;2024-01-07T13:31:47;0.50;1.00
4308;DHT22;2167;53.448;9.984;2024-01-07T13:34:13;0.50;1.00
4308;DHT22;2167;53.448;9.984;2024-01-07T13:36:40;0.50;1.00
4308;DHT22;2167;53.448;9.984;2024-01-07T13:39:06;0.40;1.00
4308;DHT22;2167;53.448;9.984;2024-01-07T13:41:33;0.50;1.00
4308;DHT22;2167;53.448;9.984;2024-01-07T13:44:00;0.50;1.00
4308;DHT22;2167;53.448;9.984;2024-01-07T13:46:25;0.50;1.00
4308;DHT22;2167;53.448;9.984;2024-01-07T13:48:51;0.50;1.00
4308;DHT22;2167;53.448;9.984;2024-01-07T13:51:17;0.50;1.00
4308;DHT22;2167;53.448;9.984;2024-01-07T13:53:43;0.50;1.00
4308;DHT22;2167;53.448;9.984;2024-01-07T13:56:11;0.50;1.00
4308;DHT22;2167;53.448;9.984;2024-01-07T13:58:36;0.40;1.00
4308;DHT22;2167;53.448;9.984;2024-01-07T14:01:02;0.30;1.00
4308;DHT22;2167;53.448;9.984;2024-01-07T14:03:28;0.30;1.00
4308;DHT22;2167;53.448;9.984;2024-01-07T14:05:55;0.30;1.00
4308;DHT22;2167;53.448;9.984;2024-01-07T14:08:21;0.30;1.00
4308;DHT22;2167;53.448;9.984;2024-01-07T14:10:47;0.30;1.00
4308;DHT22;2167;53.448;9.984;2024-01-07T14:13:13;0.20;1.00
4308;DHT22;2167;53.448;9.984;2024-01-07T14:15:39;0.20;1.00
4308;DHT22;2167;53.448;9.984;2024-01-07T14:18:05;0.20;1.00
4308;DHT22;2167;53.448;9.984;2024-01-07T14:20:30;0.20;1.00
4308;DHT22;2167;53.448;9.984;2024-01-07T14:22:56;0.20;1.00
4308;DHT22;2167;53.448;9.984;2024-01-07T14:25:22;0.20;1.00
4308;DHT22;2167;53.448;9.984;2024-01-07T14:27:47;0.10;1.00
4308;DHT22;2167;53.448;9.984;2024-01-07T14:30:13;0.10;1.00
4308;DHT22;2167;53.448;9.984;2024-01-07T14:32:41;0.00;1.00
4308;DHT22;2167;53.448;9.984;2024-01-07T14:35:07;-0.10;1.00
4308;DHT22;2167;53.448;9.984;2024-01-07T14:37:33;-0.20;1.00
4308;DHT22;2167;53.448;9.984;2024-01-07T14:39:58;-0.20;1.00
4308;DHT22;2167;53.448;9.984;2024-01-07T14:42:24;-0.30;1.00
4308;DHT22;2167;53.448;9.984;2024-01-07T14:44:50;-0.30;1.00
4308;DHT22;2167;53.448;9.984;2024-01-07T14:47:15;-0.40;1.00
4308;DHT22;2167;53.448;9.984;2024-01-07T14:49:41;-0.40;1.00
4308;DHT22;2167;53.448;9.984;2024-01-07T14:52:07;-0.40;1.00
4308;DHT22;2167;53.448;9.984;2024-01-07T14:54:32;-0.40;1.00
4308;DHT22;2167;53.448;9.984;2024-01-07T14:57:00;-0.40;1.00
4308;DHT22;2167;53.448;9.984;2024-01-07T14:59:26;-0.50;1.00
4308;DHT22;2167;53.448;9.984;2024-01-07T15:01:51;-0.50;1.00
4308;DHT22;2167;53.448;9.984;2024-01-07T15:04:19;-0.50;1.00
4308;DHT22;2167;53.448;9.984;2024-01-07T15:06:44;-0.60;1.00
4308;DHT22;2167;53.448;9.984;2024-01-07T15:09:11;-0.60;1.00
4308;DHT22;2167;53.448;9.984;2024-01-07T15:11:38;-0.60;1.00
4308;DHT22;2167;53.448;9.984;2024-01-07T15:14:07;-0.60;1.00
4308;DHT22;2167;53.448;9.984;2024-01-07T15:16:36;-0.60;1.00
4308;DHT22;2167;53.448;9.984;2024-01-07T15:19:02;-0.70;1.00
4308;DHT22;2167;53.448;9.984;2024-01-07T15:21:28;-0.70;1.00
4308;DHT22;2167;53.448;9.984;2024-01-07T15:23:54;-0.70;1.00
4308;DHT22;2167;53.448;9.984;2024-01-07T15:26:19;-0.80;1.00
4308;DHT22;2167;53.448;9.984;2024-01-07T15:28:45;-0.80;1.00
4308;DHT22;2167;53.448;9.984;2024-01-07T15:31:10;-0.80;1.00
4308;DHT22;2167;53.448;9.984;2024-01-07T15:33:36;-0.80;1.00
4308;DHT22;2167;53.448;9.984;2024-01-07T15:36:04;-0.90;1.00
4308;DHT22;2167;53.448;9.984;2024-01-07T15:38:30;-1.00;1.00
4308;DHT22;2167;53.448;9.984;2024-01-07T15:40:56;-1.00;1.00
4308;DHT22;2167;53.448;9.984;2024-01-07T15:43:21;-1.00;1.00
4308;DHT22;2167;53.448;9.984;2024-01-07T15:45:47;-1.00;1.00
4308;DHT22;2167;53.448;9.984;2024-01-07T15:48:12;-1.00;1.00
4308;DHT22;2167;53.448;9.984;2024-01-07T15:50:40;-1.00;1.00
4308;DHT22;2167;53.448;9.984;2024-01-07T15:53:05;-0.90;1.00
4308;DHT22;2167;53.448;9.984;2024-01-07T15:55:31;-1.00;1.00
4308;DHT22;2167;53.448;9.984;2024-01-07T15:57:56;-1.10;1.00
4308;DHT22;2167;53.448;9.984;2024-01-07T16:00:22;-1.10;1.00
4308;DHT22;2167;53.448;9.984;2024-01-07T16:02:47;-1.10;1.00
4308;DHT22;2167;53.448;9.984;2024-01-07T16:05:13;-1.10;1.00
4308;DHT22;2167;53.448;9.984;2024-01-07T16:07:39;-1.10;1.00
4308;DHT22;2167;53.448;9.984;2024-01-07T16:10:05;-1.10;1.00
4308;DHT22;2167;53.448;9.984;2024-01-07T16:12:31;-1.00;1.00
4308;DHT22;2167;53.448;9.984;2024-01-07T16:14:57;-1.10;1.00
4308;DHT22;2167;53.448;9.984;2024-01-07T16:17:23;-1.10;1.00
4308;DHT22;2167;53.448;9.984;2024-01-07T16:19:49;-1.20;1.00
4308;DHT22;2167;53.448;9.984;2024-01-07T16:22:14;-1.20;1.00
4308;DHT22;2167;53.448;9.984;2024-01-07T16:24:40;-1.30;1.00
4308;DHT22;2167;53.448;9.984;2024-01-07T16:27:07;-1.30;1.00
4308;DHT22;2167;53.448;9.984;2024-01-07T16:29:33;-1.30;1.00